Time;durP1;ratioP1;P1;durP2;ratioP2;P2;SDS_P1;SDS_P2;PMS_P1;PMS_P2;Temp;Humidity;BMP_temperature;BMP_pressure;BME280_temperature;BME280_humidity;BME280_pressure;Samples;Min_cycle;Max_cycle;Signal;HPM_P1;HPM_P2
2022/12/02 00:01:44;;;;;;;;;;;;;;;;;;6182287;28;20139;-87
2022/12/02 00:05:00;;;;;;;31.10;9.82;;;;;;;;;;6190356;28;19999;-86
2022/12/02 00:08:18;;;;;;;31.63;9.70;;;;;;;;;;6172143;28;20046;-86
2022/12/02 00:11:27;;;;;;;34.83;10.70;;;;;;;;;;6175781;28;20485;-86
2022/12/02 00:14:36;;;;;;;31.27;8.95;;;;;;;;;;6168603;28;20056;-87
2022/12/02 00:17:45;;;;;;;35.40;11.60;;;;;;;;;;6178971;28;20184;-87
2022/12/02 00:20:47;;;;;;;23.92;9.07;;;;;;;;;;6169831;28;20050;-88
2022/12/02 00:23:51;;;;;;;37.08;11.07;;;;;;;;;;6180340;28;20106;-87
2022/12/02 00:26:52;;;;;;;29.00;9.40;;;;;;;;;;6164212;28;20133;-88
2022/12/02 00:29:54;;;;;;;32.50;10.02;;;;;;;;;;6189360;28;20061;-87
2022/12/02 00:32:56;;;;;;;48.10;13.30;;;;;;;;;;6161043;28;20055;-88
2022/12/02 00:35:58;;;;;;;32.00;10.60;;;;;;;;;;6170707;28;20656;-87
2022/12/02 00:39:03;;;;;;;35.45;12.23;;;;;;;;;;6158086;28;20409;-87
2022/12/02 00:42:05;;;;;;;32.20;10.60;;;;;;;;;;6172905;28;20034;-88
2022/12/02 00:48:30;;;;;;;33.47;11.15;;;;;;;;;;6161682;28;20057;-87
2022/12/02 00:51:35;;;;;;;34.03;10.73;;;;;;;;;;6165521;28;20648;-88
2022/12/02 00:54:36;;;;;;;33.20;10.63;;;;;;;;;;6159297;28;20053;-88
2022/12/02 00:57:38;;;;;;;32.40;9.90;;;;;;;;;;6161587;28;20541;-87
2022/12/02 01:00:41;;;;;;;32.63;10.65;;;;;;;;;;6177659;28;20501;-88
2022/12/02 01:03:43;;;;;;;30.60;9.63;;;;;;;;;;6179749;28;20054;-87
2022/12/02 01:06:46;;;;;;;32.22;10.00;;;;;;;;;;6178821;28;20042;-87
2022/12/02 01:09:49;;;;;;;26.15;8.63;;;;;;;;;;6164690;28;20090;-87
2022/12/02 01:12:53;;;;;;;35.35;10.30;;;;;;;;;;6172696;28;20035;-88
2022/12/02 01:15:55;;;;;;;32.33;10.13;;;;;;;;;;6177435;28;20065;-88
2022/12/02 01:18:59;;;;;;;28.92;9.52;;;;;;;;;;6170915;28;20042;-89
2022/12/02 01:22:01;;;;;;;32.78;9.57;;;;;;;;;;6154243;28;20181;-89
2022/12/02 01:25:05;;;;;;;31.48;9.80;;;;;;;;;;6181415;28;20053;-88
2022/12/02 01:28:07;;;;;;;27.08;10.13;;;;;;;;;;6169451;28;20054;-89
2022/12/02 01:31:09;;;;;;;33.45;9.63;;;;;;;;;;6179025;28;20061;-87
2022/12/02 01:34:11;;;;;;;24.50;8.65;;;;;;;;;;6188229;28;20118;-88
2022/12/02 01:37:13;;;;;;;32.83;8.80;;;;;;;;;;6187475;28;20392;-88
2022/12/02 01:40:18;;;;;;;34.13;9.95;;;;;;;;;;6171778;28;20047;-88
2022/12/02 01:43:20;;;;;;;27.27;10.15;;;;;;;;;;6159728;28;20057;-88
2022/12/02 01:46:22;;;;;;;27.52;8.57;;;;;;;;;;6163686;28;20050;-87
2022/12/02 01:49:25;;;;;;;31.15;8.90;;;;;;;;;;6181254;28;20070;-89
2022/12/02 01:52:27;;;;;;;38.10;12.15;;;;;;;;;;6154550;28;20046;-88
2022/12/02 01:55:31;;;;;;;26.60;9.18;;;;;;;;;;6167270;28;20051;-88
2022/12/02 01:58:35;;;;;;;31.15;9.85;;;;;;;;;;6166781;28;20064;-88
2022/12/02 02:01:37;;;;;;;31.00;9.55;;;;;;;;;;6189302;28;20070;-87
2022/12/02 02:04:39;;;;;;;34.50;10.43;;;;;;;;;;6187324;28;20577;-88
2022/12/02 02:07:43;;;;;;;29.17;9.70;;;;;;;;;;6154457;28;20054;-88
2022/12/02 02:10:48;;;;;;;30.58;10.73;;;;;;;;;;6187720;28;20046;-88
2022/12/02 02:13:51;;;;;;;31.35;10.05;;;;;;;;;;6164498;28;20069;-88
2022/12/02 02:16:53;;;;;;;23.17;8.45;;;;;;;;;;6189724;28;20571;-88
2022/12/02 02:19:55;;;;;;;30.67;10.20;;;;;;;;;;6163466;28;20708;-88
2022/12/02 02:23:03;;;;;;;29.73;9.93;;;;;;;;;;6192448;28;20093;-88
2022/12/02 02:26:05;;;;;;;26.50;9.90;;;;;;;;;;6196942;28;20038;-88
2022/12/02 02:29:09;;;;;;;28.55;9.38;;;;;;;;;;6171604;28;20077;-89
2022/12/02 02:32:12;;;;;;;35.13;10.52;;;;;;;;;;6163990;28;20053;-87
2022/12/02 02:35:16;;;;;;;30.13;9.85;;;;;;;;;;6143409;28;20059;-88
2022/12/02 02:38:22;;;;;;;33.50;11.40;;;;;;;;;;6170392;28;20433;-88
2022/12/02 02:41:24;;;;;;;28.92;9.70;;;;;;;;;;6189421;28;20502;-88
2022/12/02 02:44:28;;;;;;;34.45;10.07;;;;;;;;;;6186267;28;20046;-88
2022/12/02 02:47:33;;;;;;;29.80;9.50;;;;;;;;;;6182996;28;20046;-88
2022/12/02 02:50:38;;;;;;;30.90;10.20;;;;;;;;;;6180081;28;20120;-89
2022/12/02 02:53:43;;;;;;;33.20;10.45;;;;;;;;;;6172285;28;20043;-89
2022/12/02 02:56:47;;;;;;;25.73;9.38;;;;;;;;;;6149558;28;20076;-88
2022/12/02 02:59:52;;;;;;;26.73;8.77;;;;;;;;;;6190547;28;20114;-88
2022/12/02 03:02:54;;;;;;;34.78;11.77;;;;;;;;;;6179137;28;20042;-87
2022/12/02 03:05:57;;;;;;;32.80;10.27;;;;;;;;;;6176885;28;20046;-87
2022/12/02 03:09:04;;;;;;;27.73;9.52;;;;;;;;;;6176344;28;20068;-88
2022/12/02 03:12:08;;;;;;;26.17;9.25;;;;;;;;;;6160381;28;20046;-87
2022/12/02 03:15:10;;;;;;;34.28;12.20;;;;;;;;;;6172673;28;20136;-86
2022/12/02 03:18:12;;;;;;;29.92;10.15;;;;;;;;;;6180192;28;20053;-87
2022/12/02 03:21:16;;;;;;;30.45;9.63;;;;;;;;;;6163290;28;20531;-87
2022/12/02 03:24:18;;;;;;;29.63;11.05;;;;;;;;;;6177967;28;20054;-87
2022/12/02 03:27:20;;;;;;;29.42;9.73;;;;;;;;;;6163088;28;20080;-88
2022/12/02 03:30:23;;;;;;;31.52;10.15;;;;;;;;;;6156556;28;20190;-87
2022/12/02 03:33:25;;;;;;;33.88;10.85;;;;;;;;;;6178998;28;20050;-88
2022/12/02 03:36:27;;;;;;;26.48;9.60;;;;;;;;;;6162041;28;20042;-87
2022/12/02 03:39:29;;;;;;;33.05;9.55;;;;;;;;;;6162151;28;20046;-87
2022/12/02 03:42:31;;;;;;;31.83;10.60;;;;;;;;;;6157001;28;20046;-87
2022/12/02 03:45:34;;;;;;;29.48;9.90;;;;;;;;;;6148546;28;20047;-86
2022/12/02 03:48:37;;;;;;;;;;;;;;;;;;6166074;28;20105;-87
2022/12/02 03:51:40;;;;;;;39.20;9.98;;;;;;;;;;6179977;28;19921;-87
2022/12/02 03:54:42;;;;;;;35.65;9.82;;;;;;;;;;6179254;28;20042;-87
2022/12/02 03:57:43;;;;;;;24.67;9.05;;;;;;;;;;6162331;28;20054;-87
2022/12/02 04:00:45;;;;;;;24.90;9.13;;;;;;;;;;6167603;28;20055;-87
2022/12/02 04:03:47;;;;;;;27.33;8.52;;;;;;;;;;6171883;28;20062;-87
2022/12/02 04:06:49;;;;;;;22.75;8.25;;;;;;;;;;6171866;28;20046;-87
2022/12/02 04:09:51;;;;;;;31.10;9.70;;;;;;;;;;6167778;28;20069;-87
2022/12/02 04:12:53;;;;;;;27.08;9.52;;;;;;;;;;6156656;28;20254;-87
2022/12/02 04:15:55;;;;;;;30.23;9.50;;;;;;;;;;6161458;28;20093;-87
2022/12/02 04:18:58;;;;;;;;;;;;;;;;;;6155381;28;20074;-86
2022/12/02 04:22:05;;;;;;;27.30;9.48;;;;;;;;;;6176677;28;19944;-86
2022/12/02 04:25:08;;;;;;;27.88;8.57;;;;;;;;;;6172594;28;20047;-88
2022/12/02 04:28:12;;;;;;;26.65;8.68;;;;;;;;;;6138772;28;20185;-87
2022/12/02 04:31:14;;;;;;;27.90;8.88;;;;;;;;;;6163069;28;20497;-87
2022/12/02 04:34:19;;;;;;;28.95;9.55;;;;;;;;;;6168748;28;20128;-87
2022/12/02 04:37:23;;;;;;;61.95;18.25;;;;;;;;;;6189441;28;20066;-88
2022/12/02 04:40:25;;;;;;;32.92;11.63;;;;;;;;;;6163497;28;20058;-86
2022/12/02 04:43:27;;;;;;;28.65;8.20;;;;;;;;;;6189015;28;20053;-86
2022/12/02 04:46:29;;;;;;;24.90;8.82;;;;;;;;;;6181587;28;20055;-87
2022/12/02 04:49:31;;;;;;;31.42;10.90;;;;;;;;;;6180657;28;20502;-87
2022/12/02 04:52:33;;;;;;;32.53;10.10;;;;;;;;;;6189889;28;20054;-87
2022/12/02 04:55:35;;;;;;;31.27;8.93;;;;;;;;;;6188884;28;20054;-88
2022/12/02 04:58:39;;;;;;;31.58;9.30;;;;;;;;;;6173096;28;20049;-87
2022/12/02 05:01:43;;;;;;;24.92;8.55;;;;;;;;;;6179786;28;20054;-87
2022/12/02 05:04:45;;;;;;;24.05;7.97;;;;;;;;;;6179669;28;20074;-87
2022/12/02 05:07:48;;;;;;;23.05;9.15;;;;;;;;;;6175060;28;20694;-87
2022/12/02 05:10:51;;;;;;;29.38;9.35;;;;;;;;;;6152790;28;20082;-87
2022/12/02 05:13:53;;;;;;;28.27;9.00;;;;;;;;;;6171231;28;20046;-87
2022/12/02 05:16:54;;;;;;;30.58;9.77;;;;;;;;;;6162303;28;20042;-87
2022/12/02 05:19:56;;;;;;;32.83;10.30;;;;;;;;;;6180561;28;20054;-87
2022/12/02 05:23:00;;;;;;;34.22;9.27;;;;;;;;;;6133994;28;20122;-87
2022/12/02 05:26:03;;;;;;;24.48;8.35;;;;;;;;;;6162010;28;20046;-87
2022/12/02 05:29:05;;;;;;;21.52;8.80;;;;;;;;;;6187401;28;20045;-87
2022/12/02 05:32:07;;;;;;;26.27;8.60;;;;;;;;;;6178374;28;20043;-87
2022/12/02 05:35:11;;;;;;;28.15;8.38;;;;;;;;;;6174989;28;20047;-87
2022/12/02 05:38:13;;;;;;;23.77;8.88;;;;;;;;;;6161755;28;20129;-86
2022/12/02 05:41:15;;;;;;;24.05;8.55;;;;;;;;;;6184436;28;20190;-87
2022/12/02 05:44:23;;;;;;;29.25;9.63;;;;;;;;;;6178134;28;20049;-87
2022/12/02 05:47:28;;;;;;;24.48;8.10;;;;;;;;;;6192049;28;20464;-88
2022/12/02 05:50:32;;;;;;;24.15;8.73;;;;;;;;;;6188493;28;20114;-87
2022/12/02 05:53:34;;;;;;;24.13;8.23;;;;;;;;;;6153004;28;20385;-87
2022/12/02 05:56:36;;;;;;;19.83;7.82;;;;;;;;;;6157297;28;20394;-87
2022/12/02 05:59:38;;;;;;;24.35;7.57;;;;;;;;;;6182469;28;20070;-86
2022/12/02 06:02:49;;;;;;;31.35;9.60;;;;;;;;;;6168344;28;20186;-86
2022/12/02 06:05:52;;;;;;;32.80;10.20;;;;;;;;;;6163195;28;20054;-88
2022/12/02 06:08:55;;;;;;;30.92;11.30;;;;;;;;;;6171782;28;20113;-87
2022/12/02 06:11:57;;;;;;;24.10;8.40;;;;;;;;;;6167541;28;20556;-87
2022/12/02 06:14:58;;;;;;;24.65;7.85;;;;;;;;;;6165031;28;20450;-86
2022/12/02 06:18:01;;;;;;;28.30;9.35;;;;;;;;;;6175938;28;20086;-88
2022/12/02 06:21:12;;;;;;;24.92;8.73;;;;;;;;;;6154262;28;20531;-87
2022/12/02 06:24:14;;;;;;;25.27;8.93;;;;;;;;;;6164984;28;20067;-87
2022/12/02 06:27:17;;;;;;;21.90;7.47;;;;;;;;;;6174122;28;20061;-87
2022/12/02 06:30:19;;;;;;;29.05;8.57;;;;;;;;;;6181781;28;20505;-87
2022/12/02 06:33:28;;;;;;;21.23;8.52;;;;;;;;;;6171981;28;20057;-87
2022/12/02 06:36:34;;;;;;;20.23;8.10;;;;;;;;;;6168582;28;20058;-88
2022/12/02 06:39:37;;;;;;;20.80;7.43;;;;;;;;;;6171844;28;20572;-86
2022/12/02 06:43:15;;;;;;;28.08;9.95;;;;;;;;;;6170839;28;20053;-86
2022/12/02 06:46:19;;;;;;;47.22;17.45;;;;;;;;;;6176136;28;20054;-86
2022/12/02 06:49:23;;;;;;;25.05;10.13;;;;;;;;;;6172125;28;20050;-86
2022/12/02 06:52:25;;;;;;;22.75;9.52;;;;;;;;;;6150052;28;20150;-87
2022/12/02 06:55:35;;;;;;;21.65;10.57;;;;;;;;;;6184869;28;20095;-85
2022/12/02 06:58:54;;;;;;;19.60;8.38;;;;;;;;;;6171998;28;20103;-87
2022/12/02 07:02:00;;;;;;;10.25;3.88;;;;;;;;;;6153228;28;20046;-87
2022/12/02 07:05:19;;;;;;;18.93;8.07;;;;;;;;;;6163429;28;20042;-87
2022/12/02 07:08:23;;;;;;;16.73;6.53;;;;;;;;;;6143627;28;20050;-87
2022/12/02 07:11:52;;;;;;;20.00;8.55;;;;;;;;;;6160815;28;20114;-87
2022/12/02 07:15:31;;;;;;;13.40;6.38;;;;;;;;;;6160550;28;20062;-87
2022/12/02 07:18:35;;;;;;;21.15;9.23;;;;;;;;;;6117845;28;20046;-86
2022/12/02 07:21:37;;;;;;;13.68;5.35;;;;;;;;;;6171140;28;20054;-87
2022/12/02 07:24:39;;;;;;;30.75;15.60;;;;;;;;;;6168800;28;20046;-87
2022/12/02 07:27:44;;;;;;;16.67;10.30;;;;;;;;;;6180690;28;20161;-85
2022/12/02 07:30:55;;;;;;;9.68;4.25;;;;;;;;;;6180483;28;20046;-86
2022/12/02 07:33:57;;;;;;;14.25;5.97;;;;;;;;;;6197549;28;20489;-88
2022/12/02 07:36:58;;;;;;;10.63;5.03;;;;;;;;;;6197555;28;20066;-87
2022/12/02 07:40:00;;;;;;;11.98;5.50;;;;;;;;;;6181784;28;20093;-85
2022/12/02 07:43:02;;;;;;;9.32;4.60;;;;;;;;;;6152329;28;20093;-86
2022/12/02 07:46:04;;;;;;;10.95;5.15;;;;;;;;;;6164198;28;20053;-85
2022/12/02 07:49:06;;;;;;;11.20;4.60;;;;;;;;;;6187024;28;20046;-86
2022/12/02 07:52:08;;;;;;;14.38;5.25;;;;;;;;;;6167722;28;20058;-87
2022/12/02 07:55:10;;;;;;;11.02;4.47;;;;;;;;;;6188444;28;20126;-85
2022/12/02 07:58:12;;;;;;;11.52;4.32;;;;;;;;;;6183015;28;20047;-86
2022/12/02 08:01:14;;;;;;;12.18;5.40;;;;;;;;;;6187384;28;20417;-87
2022/12/02 08:04:20;;;;;;;13.18;4.93;;;;;;;;;;6189460;28;20074;-86
2022/12/02 08:07:22;;;;;;;9.13;4.53;;;;;;;;;;6141772;28;20050;-86
2022/12/02 08:10:24;;;;;;;9.55;4.38;;;;;;;;;;6169169;28;22005;-86
2022/12/02 08:13:26;;;;;;;9.63;5.03;;;;;;;;;;6188384;28;20054;-87
2022/12/02 08:16:28;;;;;;;11.45;5.47;;;;;;;;;;6173045;28;20084;-87
2022/12/02 08:19:30;;;;;;;13.52;5.32;;;;;;;;;;6162045;28;20399;-87
2022/12/02 08:22:32;;;;;;;11.35;5.82;;;;;;;;;;6177063;28;20133;-87
2022/12/02 08:25:33;;;;;;;11.48;4.30;;;;;;;;;;6174327;28;20050;-86
2022/12/02 08:28:35;;;;;;;8.77;4.45;;;;;;;;;;6173211;28;20065;-87
2022/12/02 08:31:37;;;;;;;5.18;3.40;;;;;;;;;;6166123;28;20128;-87
2022/12/02 08:34:39;;;;;;;8.75;3.10;;;;;;;;;;6176446;28;20043;-87
2022/12/02 08:37:41;;;;;;;7.28;3.47;;;;;;;;;;6195135;28;20082;-87
2022/12/02 08:40:42;;;;;;;7.80;3.90;;;;;;;;;;6138152;28;20065;-86
2022/12/02 08:43:45;;;;;;;12.60;4.43;;;;;;;;;;6172033;28;20108;-87
2022/12/02 08:46:46;;;;;;;9.18;4.25;;;;;;;;;;6198317;28;20502;-88
2022/12/02 08:49:55;;;;;;;12.50;4.88;;;;;;;;;;6179934;28;20046;-87
2022/12/02 08:52:59;;;;;;;10.30;4.93;;;;;;;;;;6178851;28;20097;-87
2022/12/02 08:56:01;;;;;;;8.88;4.07;;;;;;;;;;6174524;28;20050;-87
2022/12/02 08:59:03;;;;;;;8.90;4.50;;;;;;;;;;6189909;28;20129;-87
2022/12/02 09:02:05;;;;;;;14.60;4.93;;;;;;;;;;6168552;28;20046;-88
2022/12/02 09:05:07;;;;;;;11.80;4.28;;;;;;;;;;6188412;28;20116;-86
2022/12/02 09:08:09;;;;;;;12.77;5.18;;;;;;;;;;6178790;28;20125;-87
2022/12/02 09:11:11;;;;;;;8.77;4.82;;;;;;;;;;6189221;28;20164;-88
2022/12/02 09:14:13;;;;;;;13.90;5.35;;;;;;;;;;6173588;28;20619;-87
2022/12/02 09:17:15;;;;;;;8.57;4.70;;;;;;;;;;6172168;28;20054;-87
2022/12/02 09:20:19;;;;;;;12.07;6.13;;;;;;;;;;6175848;28;20057;-87
2022/12/02 09:23:23;;;;;;;14.18;5.53;;;;;;;;;;6168980;28;20046;-87
2022/12/02 09:26:25;;;;;;;16.15;7.18;;;;;;;;;;6151254;28;20829;-87
2022/12/02 09:29:27;;;;;;;13.82;6.40;;;;;;;;;;6169133;28;20042;-89
2022/12/02 09:32:30;;;;;;;12.10;5.53;;;;;;;;;;6187666;28;20056;-86
2022/12/02 09:35:32;;;;;;;14.55;6.90;;;;;;;;;;6174519;28;20060;-88
2022/12/02 09:38:36;;;;;;;12.35;6.45;;;;;;;;;;6196014;28;20057;-86
2022/12/02 09:41:38;;;;;;;16.63;6.85;;;;;;;;;;6193534;28;20042;-85
2022/12/02 09:44:42;;;;;;;13.68;5.65;;;;;;;;;;6171781;28;20105;-87
2022/12/02 09:47:44;;;;;;;13.73;6.05;;;;;;;;;;6191702;28;20101;-86
2022/12/02 09:50:46;;;;;;;9.18;5.32;;;;;;;;;;6162377;28;20050;-87
2022/12/02 09:53:52;;;;;;;21.85;9.05;;;;;;;;;;6178439;28;20955;-87
2022/12/02 09:57:00;;;;;;;20.73;8.57;;;;;;;;;;6164901;28;20525;-87
2022/12/02 10:00:13;;;;;;;26.75;8.43;;;;;;;;;;6157456;28;20047;-88
2022/12/02 10:03:23;;;;;;;17.98;8.48;;;;;;;;;;6154216;28;20139;-85
2022/12/02 10:06:28;;;;;;;13.00;5.97;;;;;;;;;;6183469;28;20042;-85
2022/12/02 10:09:31;;;;;;;35.92;12.85;;;;;;;;;;6174109;28;20387;-88
2022/12/02 10:12:33;;;;;;;37.70;14.07;;;;;;;;;;6186629;28;20069;-87
2022/12/02 10:15:35;;;;;;;24.15;10.50;;;;;;;;;;6153457;28;20057;-87
2022/12/02 10:18:39;;;;;;;26.47;9.20;;;;;;;;;;6186809;28;20054;-87
2022/12/02 10:21:41;;;;;;;;;;;;;;;;;;6164297;28;20457;-88
2022/12/02 10:24:43;;;;;;;18.45;8.18;;;;;;;;;;6187661;28;19933;-87
2022/12/02 10:27:45;;;;;;;50.80;18.23;;;;;;;;;;6152956;28;20140;-87
2022/12/02 10:31:11;;;;;;;38.58;15.68;;;;;;;;;;6161228;28;20070;-87
2022/12/02 10:34:18;;;;;;;;;;;;;;;;;;6188662;28;20054;-88
2022/12/02 10:37:25;;;;;;;14.45;6.68;;;;;;;;;;6170382;28;20304;-88
2022/12/02 10:40:27;;;;;;;12.75;5.72;;;;;;;;;;6155842;28;20489;-86
2022/12/02 10:43:29;;;;;;;20.80;9.88;;;;;;;;;;6137990;28;20061;-86
2022/12/02 10:46:34;;;;;;;14.80;7.32;;;;;;;;;;6145123;28;20038;-87
2022/12/02 10:49:36;;;;;;;14.95;6.97;;;;;;;;;;6146348;28;20042;-87
2022/12/02 10:52:52;;;;;;;13.82;6.15;;;;;;;;;;6163281;28;20042;-87
2022/12/02 10:55:55;;;;;;;14.48;7.32;;;;;;;;;;6158680;28;20051;-87
2022/12/02 10:59:00;;;;;;;20.05;10.50;;;;;;;;;;6157862;28;20557;-89
2022/12/02 11:02:18;;;;;;;14.15;6.70;;;;;;;;;;6187598;28;20045;-88
2022/12/02 11:05:24;;;;;;;19.05;7.78;;;;;;;;;;6171516;28;20054;-89
2022/12/02 11:08:28;;;;;;;14.75;6.97;;;;;;;;;;6159741;28;20054;-89
2022/12/02 11:11:30;;;;;;;14.07;6.68;;;;;;;;;;6158011;28;20046;-87
2022/12/02 11:14:37;;;;;;;14.73;5.25;;;;;;;;;;6164676;28;20105;-88
2022/12/02 11:17:53;;;;;;;15.90;6.68;;;;;;;;;;6176642;28;20061;-90
2022/12/02 11:21:27;;;;;;;15.55;7.32;;;;;;;;;;6189027;28;20077;-87
2022/12/02 11:24:29;;;;;;;13.35;5.40;;;;;;;;;;6190024;28;20535;-90
2022/12/02 11:27:31;;;;;;;11.95;5.68;;;;;;;;;;6189485;28;20148;-86
2022/12/02 11:30:37;;;;;;;17.55;7.07;;;;;;;;;;6168621;28;20133;-87
2022/12/02 11:33:42;;;;;;;12.90;6.30;;;;;;;;;;6184302;28;20061;-86
2022/12/02 11:36:44;;;;;;;13.93;6.32;;;;;;;;;;6184730;28;20046;-87
2022/12/02 11:39:46;;;;;;;12.52;6.03;;;;;;;;;;6160009;28;20134;-87
2022/12/02 11:43:34;;;;;;;13.57;7.93;;;;;;;;;;6184969;28;20050;-89
2022/12/02 11:46:48;;;;;;;15.90;7.07;;;;;;;;;;6131495;28;21013;-88
2022/12/02 11:49:51;;;;;;;18.45;8.05;;;;;;;;;;6166330;28;20054;-86
2022/12/02 11:53:02;;;;;;;33.35;12.75;;;;;;;;;;6182394;28;20045;-87
2022/12/02 11:56:13;;;;;;;16.23;7.68;;;;;;;;;;6181224;28;20046;-87
2022/12/02 11:59:25;;;;;;;16.92;7.60;;;;;;;;;;6182773;28;20104;-88
2022/12/02 12:02:27;;;;;;;15.82;7.03;;;;;;;;;;6171628;28;20057;-87
2022/12/02 12:05:30;;;;;;;15.27;7.57;;;;;;;;;;6163468;28;20046;-88
2022/12/02 12:08:32;;;;;;;14.00;7.13;;;;;;;;;;6188632;28;20135;-86
2022/12/02 12:11:36;;;;;;;13.05;7.13;;;;;;;;;;6160500;28;20065;-85
2022/12/02 12:14:56;;;;;;;;;;;;;;;;;;6163278;28;20080;-86
2022/12/02 12:17:58;;;;;;;18.70;8.73;;;;;;;;;;6180348;28;19985;-87
2022/12/02 12:21:01;;;;;;;12.30;5.70;;;;;;;;;;6169249;28;20481;-87
2022/12/02 12:24:16;;;;;;;14.25;6.07;;;;;;;;;;6155092;28;20537;-88
2022/12/02 12:27:35;;;;;;;17.17;8.35;;;;;;;;;;6169943;28;20053;-87
2022/12/02 12:30:42;;;;;;;22.58;9.93;;;;;;;;;;6184610;28;20148;-87
2022/12/02 12:33:44;;;;;;;16.40;6.72;;;;;;;;;;6182089;28;20050;-87
2022/12/02 12:36:46;;;;;;;13.73;6.15;;;;;;;;;;6182328;28;20047;-87
2022/12/02 12:39:48;;;;;;;32.55;14.27;;;;;;;;;;6179520;28;20076;-86
2022/12/02 12:42:50;;;;;;;140.18;51.38;;;;;;;;;;6186069;28;20050;-86
2022/12/02 12:45:52;;;;;;;20.63;8.77;;;;;;;;;;6175266;28;20054;-85
2022/12/02 12:48:54;;;;;;;22.25;9.05;;;;;;;;;;6172672;28;20117;-87
2022/12/02 12:51:56;;;;;;;20.23;7.93;;;;;;;;;;6185461;28;20061;-85
2022/12/02 12:54:58;;;;;;;9.63;5.45;;;;;;;;;;6160049;28;20123;-86
2022/12/02 12:58:01;;;;;;;15.38;7.75;;;;;;;;;;6178479;28;20058;-87
2022/12/02 13:01:03;;;;;;;21.08;8.98;;;;;;;;;;6187094;28;20046;-87
2022/12/02 13:04:07;;;;;;;12.90;5.85;;;;;;;;;;6154350;28;20409;-87
2022/12/02 13:07:11;;;;;;;16.33;6.57;;;;;;;;;;6188354;28;20050;-86
2022/12/02 13:10:12;;;;;;;14.75;6.05;;;;;;;;;;6179434;28;20513;-85
2022/12/02 13:13:14;;;;;;;9.80;5.10;;;;;;;;;;6176416;28;20239;-87
2022/12/02 13:16:16;;;;;;;14.07;6.95;;;;;;;;;;6190142;28;20078;-86
2022/12/02 13:19:18;;;;;;;11.40;5.72;;;;;;;;;;6160676;28;20117;-85
2022/12/02 13:22:20;;;;;;;12.30;6.78;;;;;;;;;;6189752;28;20390;-85
2022/12/02 13:25:21;;;;;;;13.43;6.28;;;;;;;;;;6189541;28;20050;-85
2022/12/02 13:28:23;;;;;;;16.48;6.75;;;;;;;;;;6190389;28;20042;-87
2022/12/02 13:31:25;;;;;;;8.50;4.85;;;;;;;;;;6192933;28;20651;-85
2022/12/02 13:34:27;;;;;;;14.27;7.25;;;;;;;;;;6188751;28;20058;-86
2022/12/02 13:37:29;;;;;;;16.17;7.57;;;;;;;;;;6191617;28;20054;-86
2022/12/02 13:40:31;;;;;;;16.55;8.82;;;;;;;;;;6194387;28;20062;-86
2022/12/02 13:43:32;;;;;;;16.60;7.05;;;;;;;;;;6183511;28;20502;-87
2022/12/02 13:46:34;;;;;;;15.68;7.03;;;;;;;;;;6173891;28;20085;-86
2022/12/02 13:49:36;;;;;;;18.00;8.13;;;;;;;;;;6194728;28;20050;-85
2022/12/02 13:52:38;;;;;;;19.40;10.48;;;;;;;;;;6197340;28;20503;-86
2022/12/02 13:55:39;;;;;;;17.23;10.70;;;;;;;;;;6195666;28;20049;-86
2022/12/02 13:58:41;;;;;;;28.10;10.77;;;;;;;;;;6181444;28;20490;-86
2022/12/02 14:01:43;;;;;;;15.35;7.97;;;;;;;;;;6188845;28;20060;-87
2022/12/02 14:04:45;;;;;;;31.17;14.07;;;;;;;;;;6189524;28;20047;-89
2022/12/02 14:07:46;;;;;;;34.97;15.40;;;;;;;;;;6188092;28;20049;-87
2022/12/02 14:10:48;;;;;;;28.70;13.85;;;;;;;;;;6180430;28;22111;-86
2022/12/02 14:13:50;;;;;;;15.70;13.90;;;;;;;;;;6181607;28;20050;-89
2022/12/02 14:16:52;;;;;;;29.50;13.70;;;;;;;;;;6174651;28;20050;-88
2022/12/02 14:19:54;;;;;;;44.08;19.17;;;;;;;;;;6178174;28;20046;-87
2022/12/02 14:22:57;;;;;;;36.72;17.02;;;;;;;;;;6190329;28;20066;-87
2022/12/02 14:25:59;;;;;;;16.70;10.23;;;;;;;;;;6187499;28;20046;-86
2022/12/02 14:29:00;;;;;;;14.45;8.43;;;;;;;;;;6189148;28;20038;-85
2022/12/02 14:32:02;;;;;;;29.25;12.63;;;;;;;;;;6190080;28;20052;-86
2022/12/02 14:35:08;;;;;;;31.20;13.10;;;;;;;;;;6174299;28;20409;-89
2022/12/02 14:38:10;;;;;;;23.20;12.55;;;;;;;;;;6174143;28;20522;-88
2022/12/02 14:41:12;;;;;;;22.38;13.07;;;;;;;;;;6190298;28;20039;-87
2022/12/02 14:44:13;;;;;;;40.45;21.60;;;;;;;;;;6180007;28;20055;-86
2022/12/02 14:47:15;;;;;;;30.02;16.70;;;;;;;;;;6172898;28;20061;-86
2022/12/02 14:50:18;;;;;;;15.60;12.30;;;;;;;;;;6175363;28;20050;-86
2022/12/02 14:53:22;;;;;;;16.55;14.02;;;;;;;;;;6175208;28;20053;-85
2022/12/02 14:56:24;;;;;;;13.25;9.80;;;;;;;;;;6165591;28;20133;-86
2022/12/02 14:59:26;;;;;;;13.55;10.50;;;;;;;;;;6191528;28;20514;-85
2022/12/02 15:02:28;;;;;;;15.45;13.13;;;;;;;;;;6172477;28;20069;-85
2022/12/02 15:05:29;;;;;;;20.77;14.13;;;;;;;;;;6189898;28;20509;-88
2022/12/02 15:08:31;;;;;;;22.38;18.75;;;;;;;;;;6192017;28;20046;-86
2022/12/02 15:11:33;;;;;;;29.85;26.83;;;;;;;;;;6158788;28;20133;-86
2022/12/02 15:14:35;;;;;;;31.23;28.10;;;;;;;;;;6193171;28;20046;-86
2022/12/02 15:17:38;;;;;;;53.72;48.08;;;;;;;;;;6193019;28;20046;-86
2022/12/02 15:20:40;;;;;;;62.03;54.45;;;;;;;;;;6161223;28;20046;-86
2022/12/02 15:23:41;;;;;;;94.22;84.00;;;;;;;;;;6194372;28;20060;-86
2022/12/02 15:26:43;;;;;;;93.38;82.95;;;;;;;;;;6190853;28;20041;-87
2022/12/02 15:29:45;;;;;;;114.15;101.70;;;;;;;;;;6190043;28;20058;-86
2022/12/02 15:32:47;;;;;;;105.25;92.80;;;;;;;;;;6187974;28;20061;-87
2022/12/02 15:35:49;;;;;;;105.00;94.25;;;;;;;;;;6188785;28;20117;-86
2022/12/02 15:38:50;;;;;;;118.10;105.55;;;;;;;;;;6159050;28;20046;-87
2022/12/02 15:41:52;;;;;;;107.40;96.43;;;;;;;;;;6194233;28;20057;-86
2022/12/02 15:44:54;;;;;;;97.68;87.10;;;;;;;;;;6177206;28;20054;-87
2022/12/02 15:47:56;;;;;;;114.10;102.05;;;;;;;;;;6184541;28;20065;-86
2022/12/02 15:50:57;;;;;;;122.32;109.40;;;;;;;;;;6182708;28;20043;-86
2022/12/02 15:53:59;;;;;;;133.45;119.53;;;;;;;;;;6167734;28;20074;-88
2022/12/02 15:57:01;;;;;;;141.45;126.60;;;;;;;;;;6178007;28;20069;-85
2022/12/02 16:00:04;;;;;;;122.65;109.68;;;;;;;;;;6187088;28;20065;-85
2022/12/02 16:03:06;;;;;;;127.53;114.38;;;;;;;;;;6163595;28;20108;-85
2022/12/02 16:06:08;;;;;;;117.63;105.25;;;;;;;;;;6180903;28;20046;-87
2022/12/02 16:09:10;;;;;;;135.60;121.22;;;;;;;;;;6181377;28;20068;-87
2022/12/02 16:12:12;;;;;;;134.23;120.30;;;;;;;;;;6154721;28;20059;-87
2022/12/02 16:15:14;;;;;;;118.00;105.32;;;;;;;;;;6175194;28;20057;-87
2022/12/02 16:18:16;;;;;;;117.78;105.47;;;;;;;;;;6156639;28;20061;-87
2022/12/02 16:21:18;;;;;;;140.70;126.20;;;;;;;;;;6173046;28;20101;-87
2022/12/02 16:24:19;;;;;;;125.32;111.82;;;;;;;;;;6155771;28;20042;-87
2022/12/02 16:27:21;;;;;;;122.68;109.72;;;;;;;;;;6175295;28;20057;-87
2022/12/02 16:30:23;;;;;;;148.68;121.75;;;;;;;;;;6188023;28;20062;-88
2022/12/02 16:33:25;;;;;;;123.55;110.32;;;;;;;;;;6189759;28;20164;-89
2022/12/02 16:36:29;;;;;;;132.60;118.80;;;;;;;;;;6157868;28;20046;-90
2022/12/02 16:39:33;;;;;;;131.52;117.53;;;;;;;;;;6188630;28;20081;-91
2022/12/02 16:42:35;;;;;;;137.07;122.78;;;;;;;;;;6157115;28;20058;-88
2022/12/02 16:45:39;;;;;;;139.90;125.10;;;;;;;;;;6168893;28;20042;-87
2022/12/02 16:48:41;;;;;;;144.88;129.10;;;;;;;;;;6175427;28;20093;-89
2022/12/02 16:51:44;;;;;;;137.25;122.88;;;;;;;;;;6146709;28;20529;-87
2022/12/02 16:54:46;;;;;;;141.77;126.80;;;;;;;;;;6148350;28;20074;-90
2022/12/02 16:57:48;;;;;;;143.98;128.48;;;;;;;;;;6188192;28;20043;-87
2022/12/02 17:00:50;;;;;;;125.13;111.57;;;;;;;;;;6178247;28;20061;-89
2022/12/02 17:03:52;;;;;;;138.95;124.13;;;;;;;;;;6154304;28;20050;-86
2022/12/02 17:06:54;;;;;;;155.68;139.57;;;;;;;;;;6143436;28;20057;-89
2022/12/02 17:09:56;;;;;;;158.82;124.70;;;;;;;;;;6166249;28;20505;-87
2022/12/02 17:13:00;;;;;;;130.40;116.13;;;;;;;;;;6154910;28;20088;-89
2022/12/02 17:16:12;;;;;;;113.38;101.13;;;;;;;;;;6171018;28;20049;-87
2022/12/02 17:19:14;;;;;;;124.35;106.45;;;;;;;;;;6158509;28;20061;-88
2022/12/02 17:22:17;;;;;;;121.43;108.20;;;;;;;;;;6163947;28;20421;-87
2022/12/02 17:25:19;;;;;;;128.95;114.82;;;;;;;;;;6171329;28;20050;-88
2022/12/02 17:28:28;;;;;;;129.88;113.45;;;;;;;;;;6179641;28;20046;-88
2022/12/02 17:31:30;;;;;;;152.73;121.82;;;;;;;;;;6143393;28;20050;-88
2022/12/02 17:34:32;;;;;;;134.65;119.90;;;;;;;;;;6156189;28;20058;-88
2022/12/02 17:37:35;;;;;;;141.02;124.40;;;;;;;;;;6174741;28;20067;-88
2022/12/02 17:40:37;;;;;;;187.52;144.70;;;;;;;;;;6184533;28;20050;-88
2022/12/02 17:43:39;;;;;;;153.35;133.30;;;;;;;;;;6173324;28;20114;-88
2022/12/02 17:46:47;;;;;;;151.38;134.73;;;;;;;;;;6188595;28;20051;-87
2022/12/02 17:49:49;;;;;;;163.60;136.57;;;;;;;;;;6166011;28;20517;-87
2022/12/02 17:52:51;;;;;;;147.82;126.18;;;;;;;;;;6176597;28;20034;-86
2022/12/02 17:55:56;;;;;;;169.18;136.45;;;;;;;;;;6194582;28;20532;-86
2022/12/02 17:58:58;;;;;;;155.48;129.18;;;;;;;;;;6192764;28;20050;-86
2022/12/02 18:02:00;;;;;;;134.40;119.72;;;;;;;;;;6194416;28;20470;-88